IGO189 VOMM-VOBL
Flight info
| Callsign | IGO189 |
|---|---|
| Flight time | 0h 36m |
| Altitude | 16000 |
| Route | MMV W117 BIA |
| Aircraft | A20N/M-SDE2E3FGHIRWXY/LB1 |
Departure
| Time | 2026-04-29 11:34 |
|---|---|
| Airport | Chennai International Airport (VOMM) |
Arrival
| Time | 2026-04-29 12:10 |
|---|---|
| Airport | Kempegowda International Airport Bengaluru (VOBL) |
| Time | Latitude | Longitude | Altitude | Speed | Heading |
|---|---|---|---|---|---|
| 2026-04-29 11:03 | 12.98461 | 80.16601 | 55 ft | 0 kts | 159° |
| 2026-04-29 11:21 | 12.98463 | 80.16601 | 55 ft | 2 kts | 159° |
| 2026-04-29 11:21 | 12.98481 | 80.16594 | 52 ft | 2 kts | 159° |
| 2026-04-29 11:21 | 12.98497 | 80.16588 | 52 ft | 3 kts | 177° |
| 2026-04-29 11:22 | 12.98506 | 80.16588 | 50 ft | 0 kts | 195° |
| 2026-04-29 11:22 | 12.98520 | 80.16556 | 55 ft | 0 kts | 64° |
| 2026-04-29 11:22 | 12.98509 | 80.16561 | 55 ft | 0 kts | 65° |
| 2026-04-29 11:25 | 12.98512 | 80.16568 | 55 ft | 3 kts | 65° |
| 2026-04-29 11:26 | 12.98536 | 80.16617 | 53 ft | 0 kts | 66° |
| 2026-04-29 11:27 | 12.98536 | 80.16618 | 53 ft | 1 kts | 66° |
| 2026-04-29 11:27 | 12.98544 | 80.16638 | 51 ft | 5 kts | 69° |
| 2026-04-29 11:27 | 12.98562 | 80.16688 | 55 ft | 10 kts | 70° |
| 2026-04-29 11:28 | 12.98589 | 80.16754 | 49 ft | 9 kts | 57° |
| 2026-04-29 11:28 | 12.98653 | 80.16757 | 53 ft | 12 kts | 338° |
| 2026-04-29 11:28 | 12.98724 | 80.16731 | 53 ft | 10 kts | 351° |
| 2026-04-29 11:28 | 12.98774 | 80.16783 | 51 ft | 13 kts | 69° |
| 2026-04-29 11:29 | 12.98811 | 80.16881 | 53 ft | 17 kts | 69° |
| 2026-04-29 11:29 | 12.98857 | 80.17002 | 50 ft | 20 kts | 69° |
| 2026-04-29 11:29 | 12.98909 | 80.17143 | 52 ft | 22 kts | 68° |
| 2026-04-29 11:29 | 12.98980 | 80.17296 | 51 ft | 25 kts | 66° |
| 2026-04-29 11:30 | 12.99037 | 80.17445 | 50 ft | 23 kts | 69° |
| 2026-04-29 11:30 | 12.99092 | 80.17591 | 55 ft | 22 kts | 68° |
| 2026-04-29 11:30 | 12.99169 | 80.17700 | 56 ft | 18 kts | 12° |
| 2026-04-29 11:30 | 12.99228 | 80.17780 | 52 ft | 16 kts | 69° |
| 2026-04-29 11:31 | 12.99272 | 80.17895 | 50 ft | 19 kts | 68° |
| 2026-04-29 11:31 | 12.99322 | 80.18027 | 55 ft | 19 kts | 69° |
| 2026-04-29 11:31 | 12.99363 | 80.18163 | 58 ft | 21 kts | 90° |
| 2026-04-29 11:31 | 12.99376 | 80.18258 | 53 ft | 12 kts | 62° |
| 2026-04-29 11:32 | 12.99429 | 80.18320 | 51 ft | 11 kts | 43° |
| 2026-04-29 11:32 | 12.99494 | 80.18381 | 52 ft | 15 kts | 42° |
| 2026-04-29 11:32 | 12.99564 | 80.18415 | 55 ft | 7 kts | 356° |
| 2026-04-29 11:32 | 12.99579 | 80.18399 | 53 ft | 3 kts | 274° |
| 2026-04-29 11:33 | 12.99566 | 80.18361 | 50 ft | 12 kts | 248° |
| 2026-04-29 11:33 | 12.99456 | 80.18075 | 51 ft | 78 kts | 248° |
| 2026-04-29 11:33 | 12.99189 | 80.17358 | 51 ft | 134 kts | 249° |
| 2026-04-29 11:33 | 12.98817 | 80.16327 | 260 ft | 160 kts | 246° |
| 2026-04-29 11:34 | 12.98519 | 80.15264 | 1082 ft | 161 kts | 259° |
| 2026-04-29 11:34 | 12.98677 | 80.14088 | 1827 ft | 174 kts | 282° |
| 2026-04-29 11:34 | 12.99027 | 80.12851 | 2298 ft | 189 kts | 281° |
| 2026-04-29 11:34 | 12.99391 | 80.11490 | 2696 ft | 208 kts | 282° |
| 2026-04-29 11:35 | 12.99782 | 80.09981 | 3076 ft | 230 kts | 282° |
| 2026-04-29 11:35 | 13.00210 | 80.08327 | 3644 ft | 250 kts | 283° |
| 2026-04-29 11:35 | 13.00678 | 80.06526 | 4222 ft | 269 kts | 284° |
| 2026-04-29 11:35 | 13.01172 | 80.04645 | 4950 ft | 280 kts | 284° |
| 2026-04-29 11:36 | 13.01681 | 80.02711 | 5070 ft | 281 kts | 284° |
| 2026-04-29 11:36 | 13.02187 | 80.00791 | 5400 ft | 285 kts | 285° |
| 2026-04-29 11:36 | 13.02701 | 79.98835 | 5499 ft | 283 kts | 285° |
| 2026-04-29 11:36 | 13.03217 | 79.96871 | 5650 ft | 285 kts | 285° |
| 2026-04-29 11:37 | 13.03729 | 79.94924 | 5724 ft | 283 kts | 285° |
| 2026-04-29 11:37 | 13.04242 | 79.92969 | 5720 ft | 283 kts | 285° |
| 2026-04-29 11:37 | 13.04753 | 79.91020 | 5720 ft | 283 kts | 285° |
| 2026-04-29 11:37 | 13.05265 | 79.89068 | 5717 ft | 283 kts | 285° |
| 2026-04-29 11:38 | 13.05775 | 79.87122 | 5720 ft | 283 kts | 285° |
| 2026-04-29 11:38 | 13.06285 | 79.85175 | 5719 ft | 283 kts | 285° |
| 2026-04-29 11:38 | 13.06798 | 79.83217 | 5717 ft | 283 kts | 285° |
| 2026-04-29 11:38 | 13.07308 | 79.81269 | 5718 ft | 283 kts | 285° |
| 2026-04-29 11:39 | 13.07812 | 79.79339 | 5720 ft | 284 kts | 284° |
| 2026-04-29 11:39 | 13.08307 | 79.77365 | 5929 ft | 287 kts | 284° |
| 2026-04-29 11:39 | 13.08797 | 79.75368 | 6631 ft | 290 kts | 284° |
| 2026-04-29 11:39 | 13.09292 | 79.73347 | 7516 ft | 295 kts | 285° |
| 2026-04-29 11:40 | 13.09799 | 79.71286 | 8342 ft | 300 kts | 285° |
| 2026-04-29 11:40 | 13.10315 | 79.69200 | 9219 ft | 304 kts | 285° |
| 2026-04-29 11:40 | 13.10841 | 79.67076 | 10010 ft | 311 kts | 285° |
| 2026-04-29 11:40 | 13.11394 | 79.64851 | 10388 ft | 333 kts | 285° |
| 2026-04-29 11:41 | 13.11782 | 79.63289 | 10570 ft | 348 kts | 285° |
| 2026-04-29 11:41 | 13.12394 | 79.60823 | 11081 ft | 360 kts | 285° |
| 2026-04-29 11:41 | 13.13010 | 79.58328 | 11895 ft | 363 kts | 285° |
| 2026-04-29 11:41 | 13.13632 | 79.55810 | 12711 ft | 366 kts | 285° |
| 2026-04-29 11:42 | 13.14263 | 79.53256 | 13514 ft | 370 kts | 285° |
| 2026-04-29 11:42 | 13.15114 | 79.49811 | 14504 ft | 374 kts | 285° |
| 2026-04-29 11:42 | 13.15747 | 79.47244 | 15024 ft | 377 kts | 285° |
| 2026-04-29 11:42 | 13.16389 | 79.44644 | 15152 ft | 376 kts | 285° |
| 2026-04-29 11:43 | 13.16816 | 79.42912 | 15237 ft | 376 kts | 285° |
| 2026-04-29 11:43 | 13.17458 | 79.40309 | 15349 ft | 376 kts | 285° |
| 2026-04-29 11:43 | 13.18100 | 79.37703 | 15468 ft | 377 kts | 285° |
| 2026-04-29 11:43 | 13.18742 | 79.35097 | 15580 ft | 377 kts | 285° |
| 2026-04-29 11:44 | 13.19385 | 79.32489 | 15686 ft | 376 kts | 285° |
| 2026-04-29 11:44 | 13.20033 | 79.29876 | 15741 ft | 377 kts | 285° |
| 2026-04-29 11:44 | 13.20681 | 79.27262 | 15750 ft | 377 kts | 285° |
| 2026-04-29 11:44 | 13.21328 | 79.24651 | 15752 ft | 377 kts | 285° |
| 2026-04-29 11:45 | 13.21973 | 79.22048 | 15752 ft | 377 kts | 285° |
| 2026-04-29 11:45 | 13.22609 | 79.19475 | 15760 ft | 377 kts | 285° |
| 2026-04-29 11:45 | 13.23254 | 79.16867 | 15752 ft | 377 kts | 285° |
| 2026-04-29 11:45 | 13.23897 | 79.14260 | 15765 ft | 376 kts | 285° |
| 2026-04-29 11:46 | 13.24542 | 79.11649 | 15775 ft | 377 kts | 285° |
| 2026-04-29 11:46 | 13.25185 | 79.09043 | 15770 ft | 377 kts | 285° |
| 2026-04-29 11:46 | 13.25828 | 79.06433 | 15784 ft | 376 kts | 285° |
| 2026-04-29 11:46 | 13.26471 | 79.03826 | 15785 ft | 376 kts | 285° |
| 2026-04-29 11:47 | 13.27113 | 79.01222 | 15790 ft | 376 kts | 285° |
| 2026-04-29 11:47 | 13.27754 | 78.98619 | 15791 ft | 376 kts | 285° |
| 2026-04-29 11:47 | 13.28395 | 78.96018 | 15798 ft | 376 kts | 285° |
| 2026-04-29 11:47 | 13.28985 | 78.93409 | 15804 ft | 375 kts | 281° |
| 2026-04-29 11:48 | 13.29260 | 78.90740 | 15808 ft | 376 kts | 272° |
| 2026-04-29 11:48 | 13.29181 | 78.88056 | 15814 ft | 377 kts | 266° |
| 2026-04-29 11:48 | 13.28972 | 78.85375 | 15823 ft | 376 kts | 266° |
| 2026-04-29 11:48 | 13.28777 | 78.82697 | 15828 ft | 377 kts | 266° |
| 2026-04-29 11:49 | 13.28586 | 78.80013 | 15830 ft | 376 kts | 266° |
| 2026-04-29 11:49 | 13.28398 | 78.77369 | 15834 ft | 376 kts | 266° |
| 2026-04-29 11:49 | 13.28207 | 78.74690 | 15836 ft | 376 kts | 266° |
| 2026-04-29 11:49 | 13.28014 | 78.72013 | 15839 ft | 376 kts | 266° |
| 2026-04-29 11:50 | 13.27821 | 78.69337 | 15845 ft | 376 kts | 266° |
| 2026-04-29 11:50 | 13.27627 | 78.66663 | 15843 ft | 375 kts | 266° |
| 2026-04-29 11:50 | 13.27433 | 78.63995 | 15850 ft | 375 kts | 266° |
| 2026-04-29 11:50 | 13.27240 | 78.61326 | 15848 ft | 375 kts | 266° |
| 2026-04-29 11:51 | 13.27046 | 78.58653 | 15857 ft | 375 kts | 266° |
| 2026-04-29 11:51 | 13.26851 | 78.55980 | 15853 ft | 375 kts | 266° |
| 2026-04-29 11:51 | 13.26656 | 78.53306 | 15861 ft | 376 kts | 266° |
| 2026-04-29 11:51 | 13.26461 | 78.50630 | 15863 ft | 375 kts | 266° |
| 2026-04-29 11:52 | 13.26281 | 78.47988 | 15870 ft | 376 kts | 269° |
| 2026-04-29 11:52 | 13.26369 | 78.45307 | 15871 ft | 375 kts | 277° |
| 2026-04-29 11:52 | 13.26767 | 78.42670 | 15873 ft | 375 kts | 280° |
| 2026-04-29 11:52 | 13.27201 | 78.40022 | 15875 ft | 375 kts | 280° |
| 2026-04-29 11:53 | 13.27624 | 78.37387 | 15879 ft | 375 kts | 279° |
| 2026-04-29 11:53 | 13.28046 | 78.34744 | 15876 ft | 375 kts | 279° |
| 2026-04-29 11:53 | 13.28467 | 78.32097 | 15887 ft | 375 kts | 279° |
| 2026-04-29 11:53 | 13.28887 | 78.29449 | 15898 ft | 375 kts | 279° |
| 2026-04-29 11:54 | 13.29307 | 78.26810 | 15896 ft | 375 kts | 279° |
| 2026-04-29 11:54 | 13.29727 | 78.24169 | 15896 ft | 375 kts | 279° |
| 2026-04-29 11:54 | 13.30147 | 78.21529 | 15894 ft | 375 kts | 279° |
| 2026-04-29 11:54 | 13.30418 | 78.18898 | 15905 ft | 375 kts | 272° |
| 2026-04-29 11:55 | 13.30450 | 78.16221 | 15901 ft | 375 kts | 271° |
| 2026-04-29 11:55 | 13.30482 | 78.13540 | 15790 ft | 376 kts | 271° |
| 2026-04-29 11:55 | 13.30521 | 78.10860 | 15553 ft | 375 kts | 271° |
| 2026-04-29 11:55 | 13.30561 | 78.08192 | 15322 ft | 373 kts | 271° |
| 2026-04-29 11:56 | 13.30596 | 78.05825 | 15040 ft | 374 kts | 271° |
| 2026-04-29 11:56 | 13.30635 | 78.03144 | 14447 ft | 378 kts | 271° |
| 2026-04-29 11:56 | 13.30674 | 78.00460 | 13946 ft | 375 kts | 270° |
| 2026-04-29 11:56 | 13.30711 | 77.97827 | 13762 ft | 362 kts | 270° |
| 2026-04-29 11:57 | 13.30746 | 77.95285 | 13624 ft | 348 kts | 270° |
| 2026-04-29 11:57 | 13.30779 | 77.92854 | 13487 ft | 335 kts | 270° |
| 2026-04-29 11:57 | 13.30810 | 77.90537 | 13372 ft | 322 kts | 270° |
| 2026-04-29 11:57 | 13.30841 | 77.88284 | 13254 ft | 309 kts | 270° |
| 2026-04-29 11:58 | 13.30870 | 77.86118 | 13148 ft | 297 kts | 270° |
| 2026-04-29 11:58 | 13.30898 | 77.84036 | 13047 ft | 285 kts | 270° |
| 2026-04-29 11:58 | 13.30924 | 77.82039 | 12899 ft | 276 kts | 270° |
| 2026-04-29 11:58 | 13.30950 | 77.80080 | 12561 ft | 274 kts | 270° |
| 2026-04-29 11:59 | 13.30976 | 77.78125 | 12233 ft | 272 kts | 270° |
| 2026-04-29 11:59 | 13.30997 | 77.76186 | 11898 ft | 271 kts | 270° |
| 2026-04-29 11:59 | 13.31013 | 77.74255 | 11580 ft | 269 kts | 270° |
| 2026-04-29 11:59 | 13.31027 | 77.72335 | 11236 ft | 268 kts | 269° |
| 2026-04-29 12:00 | 13.31042 | 77.70416 | 10911 ft | 267 kts | 269° |
| 2026-04-29 12:00 | 13.31057 | 77.68514 | 10509 ft | 266 kts | 269° |
| 2026-04-29 12:00 | 13.31072 | 77.66620 | 10048 ft | 265 kts | 269° |
| 2026-04-29 12:00 | 13.31088 | 77.64763 | 9608 ft | 263 kts | 269° |
| 2026-04-29 12:01 | 13.31102 | 77.62901 | 9310 ft | 259 kts | 269° |
| 2026-04-29 12:01 | 13.31116 | 77.61097 | 9193 ft | 249 kts | 269° |
| 2026-04-29 12:01 | 13.31129 | 77.59328 | 8915 ft | 247 kts | 269° |
| 2026-04-29 12:01 | 13.31141 | 77.57574 | 8621 ft | 245 kts | 269° |
| 2026-04-29 12:02 | 13.31154 | 77.55839 | 8217 ft | 242 kts | 270° |
| 2026-04-29 12:02 | 13.31166 | 77.54114 | 7795 ft | 241 kts | 269° |
| 2026-04-29 12:02 | 13.31181 | 77.52414 | 7495 ft | 235 kts | 269° |
| 2026-04-29 12:02 | 13.31192 | 77.50732 | 7303 ft | 236 kts | 269° |
| 2026-04-29 12:03 | 13.31201 | 77.49030 | 7221 ft | 239 kts | 270° |
| 2026-04-29 12:03 | 13.31148 | 77.47340 | 7119 ft | 235 kts | 256° |
| 2026-04-29 12:03 | 13.30422 | 77.45867 | 7044 ft | 234 kts | 224° |
| 2026-04-29 12:03 | 13.29052 | 77.45017 | 7021 ft | 232 kts | 194° |
| 2026-04-29 12:04 | 13.27459 | 77.44739 | 7015 ft | 233 kts | 185° |
| 2026-04-29 12:04 | 13.25846 | 77.44586 | 7018 ft | 232 kts | 185° |
| 2026-04-29 12:04 | 13.24244 | 77.44403 | 7018 ft | 232 kts | 185° |
| 2026-04-29 12:04 | 13.22672 | 77.44612 | 7016 ft | 230 kts | 152° |
| 2026-04-29 12:05 | 13.21539 | 77.45729 | 7008 ft | 225 kts | 118° |
| 2026-04-29 12:05 | 13.21046 | 77.47195 | 6853 ft | 217 kts | 100° |
| 2026-04-29 12:05 | 13.20897 | 77.48736 | 6594 ft | 216 kts | 92° |
| 2026-04-29 12:05 | 13.20873 | 77.50274 | 6353 ft | 213 kts | 90° |
| 2026-04-29 12:06 | 13.20860 | 77.51761 | 6088 ft | 205 kts | 91° |
| 2026-04-29 12:06 | 13.20848 | 77.53195 | 5813 ft | 198 kts | 90° |
| 2026-04-29 12:06 | 13.20835 | 77.54586 | 5557 ft | 192 kts | 90° |
| 2026-04-29 12:06 | 13.20824 | 77.55936 | 5315 ft | 186 kts | 90° |
| 2026-04-29 12:07 | 13.20812 | 77.57248 | 5084 ft | 181 kts | 90° |
| 2026-04-29 12:07 | 13.20802 | 77.58505 | 4856 ft | 170 kts | 90° |
| 2026-04-29 12:07 | 13.20792 | 77.59671 | 4648 ft | 157 kts | 90° |
| 2026-04-29 12:07 | 13.20782 | 77.60741 | 4461 ft | 143 kts | 90° |
| 2026-04-29 12:08 | 13.20774 | 77.61738 | 4278 ft | 143 kts | 90° |
| 2026-04-29 12:08 | 13.20766 | 77.62757 | 4102 ft | 142 kts | 90° |
| 2026-04-29 12:08 | 13.20757 | 77.63766 | 3923 ft | 141 kts | 89° |
| 2026-04-29 12:08 | 13.20748 | 77.64766 | 3758 ft | 137 kts | 89° |
| 2026-04-29 12:09 | 13.20736 | 77.65743 | 3571 ft | 136 kts | 89° |
| 2026-04-29 12:09 | 13.20707 | 77.66695 | 3363 ft | 129 kts | 85° |
| 2026-04-29 12:09 | 13.20727 | 77.67600 | 3216 ft | 128 kts | 88° |
| 2026-04-29 12:09 | 13.20712 | 77.68500 | 3101 ft | 129 kts | 86° |
| 2026-04-29 12:10 | 13.20712 | 77.69403 | 3011 ft | 110 kts | 90° |
| 2026-04-29 12:10 | 13.20707 | 77.69881 | 3011 ft | 24 kts | 90° |
| 2026-04-29 12:10 | 13.20707 | 77.70031 | 3011 ft | 21 kts | 90° |
| 2026-04-29 12:10 | 13.20705 | 77.70185 | 3011 ft | 22 kts | 90° |
| 2026-04-29 12:11 | 13.20703 | 77.70344 | 3011 ft | 23 kts | 91° |
| 2026-04-29 12:11 | 13.20683 | 77.70463 | 3010 ft | 15 kts | 118° |
| 2026-04-29 12:11 | 13.20625 | 77.70562 | 3011 ft | 17 kts | 120° |
| 2026-04-29 12:11 | 13.20558 | 77.70671 | 3011 ft | 19 kts | 120° |
| 2026-04-29 12:12 | 13.20527 | 77.70770 | 3011 ft | 11 kts | 88° |
| 2026-04-29 12:12 | 13.20529 | 77.70849 | 3010 ft | 7 kts | 94° |
| 2026-04-29 12:12 | 13.20528 | 77.70857 | 3010 ft | 2 kts | 94° |
| 2026-04-29 12:12 | 13.20527 | 77.70886 | 3010 ft | 6 kts | 92° |
| 2026-04-29 12:13 | 13.20526 | 77.70937 | 3010 ft | 8 kts | 91° |
| 2026-04-29 12:13 | 13.20525 | 77.71005 | 3010 ft | 11 kts | 90° |
| 2026-04-29 12:13 | 13.20525 | 77.71090 | 3010 ft | 13 kts | 90° |
| 2026-04-29 12:13 | 13.20524 | 77.71187 | 3011 ft | 11 kts | 90° |
| 2026-04-29 12:14 | 13.20511 | 77.71255 | 3014 ft | 9 kts | 141° |
| 2026-04-29 12:14 | 13.20436 | 77.71258 | 3011 ft | 13 kts | 181° |
| 2026-04-29 12:14 | 13.20338 | 77.71257 | 3011 ft | 13 kts | 181° |
| 2026-04-29 12:14 | 13.20267 | 77.71249 | 3011 ft | 9 kts | 205° |
| 2026-04-29 12:15 | 13.20209 | 77.71236 | 3011 ft | 7 kts | 177° |
| 2026-04-29 12:15 | 13.20185 | 77.71236 | 3013 ft | 4 kts | 180° |
| 2026-04-29 12:15 | 13.20173 | 77.71236 | 3013 ft | 2 kts | 180° |
| 2026-04-29 12:15 | 13.20170 | 77.71236 | 3012 ft | 0 kts | 180° |